Time;durP1;ratioP1;P1;durP2;ratioP2;P2;SDS_P1;SDS_P2;PMS_P1;PMS_P2;Temp;Humidity;BMP_temperature;BMP_pressure;BME280_temperature;BME280_humidity;BME280_pressure;Samples;Min_cycle;Max_cycle;Signal;HPM_P1;HPM_P2
2022/06/07 00:02:07;;;;;;;9.38;5.68;;;;;;;14.53;100.00;93146.56;5162677;27;20043;-85
2022/06/07 00:04:34;;;;;;;10.75;5.75;;;;;;;14.51;100.00;93148.63;5163270;27;20152;-85
2022/06/07 00:07:01;;;;;;;7.90;5.35;;;;;;;14.50;100.00;93148.84;5162625;27;20077;-85
2022/06/07 00:09:29;;;;;;;11.40;5.82;;;;;;;14.49;100.00;93144.72;5165129;27;20094;-85
2022/06/07 00:11:56;;;;;;;8.38;5.55;;;;;;;14.38;100.00;93125.66;5168341;27;20145;-85
2022/06/07 00:14:26;;;;;;;9.05;6.15;;;;;;;14.49;100.00;93140.31;5173109;27;20091;-85
2022/06/07 00:16:54;;;;;;;9.60;5.43;;;;;;;14.51;100.00;93145.25;5171269;27;20050;-85
2022/06/07 00:19:22;;;;;;;11.07;5.57;;;;;;;13.89;100.00;93052.84;5172742;27;20082;-85
2022/06/07 00:21:49;;;;;;;9.68;6.28;;;;;;;14.46;100.00;93135.63;5172992;27;20039;-85
2022/06/07 00:24:16;;;;;;;10.88;6.68;;;;;;;14.49;100.00;93147.28;5172994;27;20046;-85
2022/06/07 00:26:43;;;;;;;10.10;6.63;;;;;;;14.43;100.00;93143.81;5172736;27;20042;-85
2022/06/07 00:29:10;;;;;;;9.82;6.07;;;;;;;14.43;100.00;93143.81;5172939;27;20099;-85
2022/06/07 00:31:39;;;;;;;10.13;5.97;;;;;;;14.42;100.00;93137.91;5172481;27;20487;-85
2022/06/07 00:34:07;;;;;;;13.60;6.43;;;;;;;14.40;100.00;93139.91;5172819;27;20129;-85
2022/06/07 00:36:36;;;;;;;10.80;6.10;;;;;;;14.34;100.00;93140.84;5172728;27;21857;-85
2022/06/07 00:39:03;;;;;;;10.82;6.05;;;;;;;14.30;100.00;93132.00;5172564;27;20385;-85
2022/06/07 00:41:30;;;;;;;9.93;6.50;;;;;;;14.26;100.00;93139.44;5172605;27;20169;-84
2022/06/07 00:44:27;;;;;;;9.35;5.60;;;;;;;14.23;100.00;93137.34;5172691;27;20507;-84
2022/06/07 00:46:56;;;;;;;10.55;6.47;;;;;;;14.16;100.00;93132.31;5172338;27;20487;-84
2022/06/07 00:49:25;;;;;;;9.05;5.75;;;;;;;14.21;100.00;93133.41;5172395;27;20042;-84
2022/06/07 00:51:53;;;;;;;11.70;5.68;;;;;;;14.21;100.00;93138.59;5172349;27;20046;-85
2022/06/07 00:54:20;;;;;;;8.93;5.82;;;;;;;14.18;100.00;93144.22;5172301;27;20098;-85
2022/06/07 00:56:47;;;;;;;9.15;6.03;;;;;;;14.07;100.00;93146.63;5172065;27;20134;-85
2022/06/07 00:59:13;;;;;;;9.73;6.68;;;;;;;13.82;100.00;93141.78;5172386;27;20106;-84
2022/06/07 01:01:40;;;;;;;9.70;6.05;;;;;;;13.35;100.00;93138.34;5172307;27;20054;-85
2022/06/07 01:04:07;;;;;;;11.60;6.70;;;;;;;13.11;100.00;93133.22;5172122;27;20748;-84
2022/06/07 01:12:06;;;;;;;10.50;6.10;;;;;;;12.64;100.00;93061.91;5170649;27;20079;-85
2022/06/07 01:14:33;;;;;;;11.82;6.35;;;;;;;13.27;100.00;93144.63;5172153;27;20042;-85
2022/06/07 01:17:00;;;;;;;11.23;7.55;;;;;;;13.39;100.00;93134.28;5171885;27;20488;-84
2022/06/07 01:19:27;;;;;;;15.45;7.57;;;;;;;13.43;100.00;93140.53;5171657;27;20054;-84
2022/06/07 01:21:55;;;;;;;13.00;7.47;;;;;;;13.57;100.00;93143.66;5171687;27;20137;-85
2022/06/07 01:24:22;;;;;;;15.95;9.07;;;;;;;13.57;100.00;93130.78;5172122;27;20046;-84
2022/06/07 01:26:50;;;;;;;15.02;8.25;;;;;;;13.78;100.00;93148.44;5170050;27;20082;-85
2022/06/07 01:29:17;;;;;;;13.68;8.35;;;;;;;13.92;100.00;93141.97;5172091;27;20043;-85
2022/06/07 01:31:44;;;;;;;9.57;6.53;;;;;;;14.00;100.00;93144.19;5171800;27;20058;-85
2022/06/07 01:34:13;;;;;;;12.25;6.60;;;;;;;14.07;100.00;93141.44;5171667;27;20488;-85
2022/06/07 01:36:39;;;;;;;11.27;6.72;;;;;;;13.99;100.00;93126.34;5171640;27;20046;-84
2022/06/07 01:41:55;;;;;;;10.82;6.25;;;;;;;14.15;100.00;93137.69;5172013;27;20071;-84
2022/06/07 01:44:22;;;;;;;9.40;6.25;;;;;;;14.13;100.00;93140.50;5170030;27;20038;-84
2022/06/07 01:46:49;;;;;;;11.02;6.53;;;;;;;14.17;100.00;93148.59;5171958;27;20430;-84
2022/06/07 01:49:17;;;;;;;8.75;5.68;;;;;;;14.20;100.00;93145.53;5171569;27;20125;-84
2022/06/07 01:51:44;;;;;;;8.52;6.22;;;;;;;14.14;100.00;93141.31;5171779;27;20042;-84
2022/06/07 01:54:14;;;;;;;10.82;6.50;;;;;;;14.20;100.00;93140.38;5171789;27;20380;-83
2022/06/07 01:56:42;;;;;;;12.60;6.28;;;;;;;14.19;100.00;93140.59;5171688;27;20046;-84
2022/06/07 01:59:09;;;;;;;8.02;5.38;;;;;;;14.15;100.00;93141.09;5169638;27;20117;-84
2022/06/07 02:01:36;;;;;;;12.48;6.45;;;;;;;14.08;100.00;93129.31;5171545;27;20046;-84
2022/06/07 02:04:04;;;;;;;9.38;5.75;;;;;;;14.12;100.00;93128.63;5172055;27;20070;-84
2022/06/07 02:06:31;;;;;;;12.50;6.82;;;;;;;14.22;100.00;93135.78;5171323;27;20101;-84
2022/06/07 02:08:58;;;;;;;12.02;6.22;;;;;;;14.28;100.00;93134.03;5171548;27;20068;-83
2022/06/07 02:11:28;;;;;;;10.68;7.03;;;;;;;14.25;100.00;93124.16;5171499;27;20484;-83
2022/06/07 02:13:55;;;;;;;14.15;6.60;;;;;;;14.36;100.00;93138.84;5169576;27;20074;-83
2022/06/07 02:16:23;;;;;;;11.15;6.28;;;;;;;14.42;100.00;93139.69;5169358;27;20046;-82
2022/06/07 02:18:50;;;;;;;11.30;7.05;;;;;;;14.45;100.00;93139.22;5171490;27;20039;-83
2022/06/07 02:21:18;;;;;;;11.50;6.72;;;;;;;14.52;100.00;93139.06;5171562;27;20054;-83
2022/06/07 02:23:45;;;;;;;11.52;6.65;;;;;;;14.61;100.00;93140.22;5171768;27;20070;-83
2022/06/07 02:26:14;;;;;;;11.93;6.72;;;;;;;14.62;100.00;93139.22;5171217;27;20046;-83
2022/06/07 02:28:47;;;;;;;11.85;6.15;;;;;;;14.66;100.00;93142.88;5169621;27;20063;-83
2022/06/07 02:31:16;;;;;;;9.70;6.80;;;;;;;14.65;100.00;93146.50;5172737;27;20046;-84
2022/06/07 02:33:43;;;;;;;11.82;7.28;;;;;;;14.67;100.00;93146.25;5175321;27;20094;-83
2022/06/07 02:36:12;;;;;;;10.65;7.00;;;;;;;14.66;100.00;93144.69;5173186;27;20503;-83
2022/06/07 02:38:40;;;;;;;8.75;6.30;;;;;;;14.66;100.00;93149.84;5174964;27;20046;-83
2022/06/07 02:41:11;;;;;;;12.15;6.80;;;;;;;14.70;100.00;93148.38;5174786;27;20492;-84
2022/06/07 02:43:38;;;;;;;9.20;6.72;;;;;;;14.69;100.00;93139.81;5174701;27;20540;-84
2022/06/07 02:46:06;;;;;;;11.52;7.28;;;;;;;14.74;100.00;93144.28;5175072;27;20094;-84
2022/06/07 02:48:33;;;;;;;8.95;6.43;;;;;;;14.73;100.00;93137.56;5174738;27;20034;-83
2022/06/07 02:51:00;;;;;;;10.38;7.22;;;;;;;14.76;100.00;93142.28;5174802;27;20576;-83
2022/06/07 02:53:26;;;;;;;12.23;6.88;;;;;;;14.80;100.00;93145.16;5174547;27;20034;-84
2022/06/07 02:55:53;;;;;;;10.63;7.35;;;;;;;14.85;100.00;93142.66;5174679;27;20050;-84
2022/06/07 02:58:20;;;;;;;11.45;6.55;;;;;;;14.93;100.00;93144.84;5175208;27;20438;-83
2022/06/07 03:00:47;;;;;;;12.20;6.88;;;;;;;14.99;100.00;93147.50;5174640;27;20046;-83
2022/06/07 03:03:15;;;;;;;11.00;7.32;;;;;;;14.99;100.00;93148.28;5174524;27;20042;-83
2022/06/07 03:05:42;;;;;;;10.00;7.07;;;;;;;15.01;100.00;93142.88;5174365;27;20101;-83
2022/06/07 03:08:09;;;;;;;15.43;7.18;;;;;;;15.03;100.00;93146.00;5174284;27;20046;-83
2022/06/07 03:10:36;;;;;;;11.43;7.40;;;;;;;15.01;100.00;93148.84;5174568;27;20038;-83
2022/06/07 03:13:02;;;;;;;11.65;7.28;;;;;;;15.06;100.00;93155.88;5174439;27;20437;-84
2022/06/07 03:15:30;;;;;;;11.38;7.57;;;;;;;15.08;100.00;93153.81;5174305;27;20047;-83
2022/06/07 03:17:56;;;;;;;9.45;7.13;;;;;;;15.13;100.00;93151.31;5174198;27;20050;-83
2022/06/07 03:20:25;;;;;;;9.23;6.32;;;;;;;14.95;100.00;93118.75;5174032;27;20046;-84
2022/06/07 03:22:52;;;;;;;14.85;7.28;;;;;;;15.15;100.00;93151.88;5173980;27;20050;-83
2022/06/07 03:25:21;;;;;;;9.18;6.07;;;;;;;15.15;100.00;93156.25;5174012;27;20157;-82
2022/06/07 03:27:48;;;;;;;10.88;6.97;;;;;;;15.18;100.00;93163.53;5172152;27;20042;-82
2022/06/07 03:30:15;;;;;;;14.15;6.47;;;;;;;15.09;100.00;93160.59;5173996;27;20038;-82
2022/06/07 03:32:42;;;;;;;14.38;8.18;;;;;;;14.86;100.00;93143.44;5174159;27;20408;-82
2022/06/07 03:35:09;;;;;;;15.05;8.73;;;;;;;14.92;100.00;93163.19;5173695;27;20093;-82
2022/06/07 03:37:38;;;;;;;19.27;9.65;;;;;;;14.87;100.00;93169.09;5174058;27;20043;-83
2022/06/07 03:40:06;;;;;;;16.17;9.20;;;;;;;14.95;100.00;93173.84;5171985;27;20042;-82
2022/06/07 03:42:33;;;;;;;15.38;8.82;;;;;;;15.04;100.00;93169.03;5173836;27;20047;-83
2022/06/07 03:44:59;;;;;;;18.88;9.40;;;;;;;15.10;100.00;93165.50;5173554;27;20098;-83
2022/06/07 03:47:26;;;;;;;17.60;8.60;;;;;;;15.17;100.00;93173.09;5173479;27;20046;-83
2022/06/07 03:49:53;;;;;;;20.73;8.75;;;;;;;15.27;100.00;93167.25;5173618;27;20165;-83
2022/06/07 03:52:20;;;;;;;18.77;10.40;;;;;;;15.39;100.00;93169.75;5173749;27;20106;-82
2022/06/07 03:54:49;;;;;;;16.80;9.63;;;;;;;15.18;100.00;93128.09;5173530;27;20042;-83
2022/06/07 03:57:17;;;;;;;22.35;9.35;;;;;;;15.59;100.00;93182.16;5173498;27;20043;-82
2022/06/07 03:59:44;;;;;;;19.27;9.00;;;;;;;15.67;100.00;93175.75;5173364;27;20437;-83
2022/06/07 04:02:11;;;;;;;15.27;8.48;;;;;;;15.79;100.00;93178.25;5173040;27;20487;-83
2022/06/07 04:04:38;;;;;;;16.08;8.73;;;;;;;15.81;100.00;93167.63;5173510;27;20126;-82
2022/06/07 04:09:51;;;;;;;21.00;10.57;;;;;;;16.05;100.00;93178.50;5173474;27;20053;-82
2022/06/07 04:12:18;;;;;;;19.75;10.50;;;;;;;16.07;100.00;93175.69;5173061;27;20408;-83
2022/06/07 04:14:46;;;;;;;18.70;10.20;;;;;;;16.14;100.00;93184.81;5172925;27;20038;-83
2022/06/07 04:17:14;;;;;;;17.52;9.43;;;;;;;16.17;100.00;93189.50;5173156;27;20086;-83
2022/06/07 04:19:42;;;;;;;15.73;9.40;;;;;;;16.27;100.00;93182.88;5173159;27;20442;-83
2022/06/07 04:22:11;;;;;;;18.50;10.50;;;;;;;16.37;100.00;93197.72;5171108;27;20133;-83
2022/06/07 04:24:38;;;;;;;18.92;10.52;;;;;;;16.47;100.00;93197.06;5170684;27;20046;-83
2022/06/07 04:27:06;;;;;;;16.05;9.30;;;;;;;16.53;100.00;93194.22;5172662;27;20042;-83
2022/06/07 04:29:33;;;;;;;16.73;10.32;;;;;;;16.51;100.00;93188.53;5172698;27;20038;-83
2022/06/07 04:31:59;;;;;;;17.60;10.30;;;;;;;16.61;100.00;93197.41;5172892;27;20046;-83
2022/06/07 04:34:27;;;;;;;16.85;10.30;;;;;;;16.67;100.00;93194.59;5170991;27;20078;-83
2022/06/07 04:36:54;;;;;;;19.67;11.77;;;;;;;16.69;100.00;93194.34;5172700;27;20042;-83
2022/06/07 04:39:21;;;;;;;18.30;9.63;;;;;;;16.66;100.00;93195.63;5172636;27;20069;-83
2022/06/07 04:41:47;;;;;;;16.08;9.30;;;;;;;16.76;100.00;93200.09;5172434;27;20453;-83
2022/06/07 04:44:16;;;;;;;14.65;8.65;;;;;;;16.82;100.00;93200.94;5171396;27;20082;-85
2022/06/07 04:46:43;;;;;;;17.52;10.07;;;;;;;16.77;100.00;93199.09;5172327;27;20042;-84
2022/06/07 04:49:09;;;;;;;15.55;8.30;;;;;;;16.86;100.00;93201.22;5172532;27;21198;-83
2022/06/07 04:51:38;;;;;;;17.05;9.38;;;;;;;16.93;100.00;93199.97;5172378;27;20536;-82
2022/06/07 04:54:06;;;;;;;15.57;9.13;;;;;;;16.81;100.00;93202.75;5171029;27;20091;-83
2022/06/07 04:56:35;;;;;;;16.77;9.05;;;;;;;16.77;100.00;93196.50;5170485;27;20153;-83
2022/06/07 04:59:04;;;;;;;14.23;8.85;;;;;;;16.83;100.00;93195.50;5170598;27;20054;-83
2022/06/07 05:01:35;;;;;;;17.45;8.68;;;;;;;16.93;100.00;93199.97;5170164;27;20456;-83
2022/06/07 05:04:03;;;;;;;15.82;8.60;;;;;;;17.04;100.00;93203.44;5170070;27;20086;-83
2022/06/07 05:06:32;;;;;;;12.32;7.70;;;;;;;17.15;100.00;93199.13;5172523;27;20053;-83
2022/06/07 05:09:02;;;;;;;15.60;9.48;;;;;;;17.18;100.00;93197.84;5171967;27;20042;-83
2022/06/07 05:11:30;;;;;;;15.00;9.10;;;;;;;17.35;100.00;93205.44;5172071;27;20042;-83
2022/06/07 05:13:58;;;;;;;14.18;8.70;;;;;;;17.36;100.00;93199.25;5172128;27;20054;-83
2022/06/07 05:16:25;;;;;;;13.75;8.35;;;;;;;17.40;100.00;93197.69;5172024;27;20095;-82
2022/06/07 05:18:55;;;;;;;16.95;8.70;;;;;;;17.43;100.00;93201.59;5171945;27;20086;-82
2022/06/07 05:21:24;;;;;;;16.52;9.18;;;;;;;17.52;100.00;93215.66;5170022;27;20038;-83
2022/06/07 05:23:53;;;;;;;17.17;10.30;;;;;;;17.57;100.00;93217.50;5169674;27;20046;-83
2022/06/07 05:26:27;;;;;;;20.08;11.15;;;;;;;17.48;100.00;93217.19;5171917;27;20090;-83
2022/06/07 05:28:54;;;;;;;18.80;10.38;;;;;;;17.54;100.00;93210.22;5170056;27;20056;-83
2022/06/07 05:31:21;;;;;;;18.23;10.43;;;;;;;17.42;100.00;93203.41;5169924;27;20046;-83
2022/06/07 05:33:48;;;;;;;24.63;11.50;;;;;;;17.63;100.00;93201.69;5171684;27;20046;-83
2022/06/07 05:36:16;;;;;;;19.08;11.38;;;;;;;17.81;100.00;93204.09;5171732;27;20046;-83
2022/06/07 05:38:43;;;;;;;15.30;9.93;;;;;;;17.99;100.00;93208.03;5171675;27;20125;-83
2022/06/07 05:41:14;;;;;;;16.23;10.48;;;;;;;18.14;100.00;93196.91;5172237;27;20046;-83
2022/06/07 05:43:41;;;;;;;22.25;11.90;;;;;;;18.01;100.00;93196.34;5170055;27;20415;-83
2022/06/07 05:46:09;;;;;;;18.33;10.38;;;;;;;17.79;100.00;93206.16;5171743;27;20531;-82
2022/06/07 05:48:36;;;;;;;18.92;11.27;;;;;;;17.76;100.00;93205.63;5171930;27;20054;-83
2022/06/07 05:51:03;;;;;;;18.65;11.02;;;;;;;17.74;100.00;93193.94;5171844;27;20050;-82
2022/06/07 05:53:31;;;;;;;29.02;12.82;;;;;;;18.15;100.00;93201.09;5171823;27;20046;-83
2022/06/07 05:55:58;;;;;;;30.38;14.88;;;;;;;17.94;100.00;93208.81;5169934;27;20050;-84
2022/06/07 05:58:25;;;;;;;29.20;13.00;;;;;;;18.19;100.00;93215.13;5166627;27;20091;-82
2022/06/07 06:00:52;;;;;;;21.38;11.25;;;;;;;18.62;100.00;93214.97;5171468;27;20078;-82
2022/06/07 06:03:18;;;;;;;18.80;10.57;;;;;;;18.88;100.00;93207.13;5171667;27;20045;-82
2022/06/07 06:05:46;;;;;;;21.38;10.13;;;;;;;19.17;100.00;93211.03;5173526;27;20046;-82
2022/06/07 06:11:08;;;;;;;21.50;10.27;;;;;;;19.22;100.00;93222.22;5175729;27;20057;-82
2022/06/07 06:13:36;;;;;;;14.85;8.18;;;;;;;19.55;100.00;93226.31;5173955;27;20555;-83
2022/06/07 06:16:05;;;;;;;16.77;9.65;;;;;;;19.79;100.00;93220.50;5175683;27;20052;-83
2022/06/07 06:18:32;;;;;;;15.70;8.40;;;;;;;20.02;100.00;93213.91;5173699;27;20091;-83
2022/06/07 06:20:58;;;;;;;14.75;7.68;;;;;;;20.14;100.00;93214.38;5175434;27;20408;-83
2022/06/07 06:23:26;;;;;;;17.13;8.23;;;;;;;20.46;100.00;93220.19;5175320;27;20046;-83
2022/06/07 06:25:53;;;;;;;15.45;8.48;;;;;;;20.25;100.00;93212.50;5175002;27;20548;-83
2022/06/07 06:28:21;;;;;;;14.38;8.52;;;;;;;19.88;100.00;93208.47;5175170;27;20054;-84
2022/06/07 06:30:48;;;;;;;21.73;9.75;;;;;;;20.10;100.00;93213.38;5173405;27;20057;-83
2022/06/07 06:33:16;;;;;;;27.88;12.57;;;;;;;20.38;100.00;93192.06;5175171;27;20133;-82
2022/06/07 06:35:48;;;;;;;32.05;13.00;;;;;;;20.70;100.00;93209.06;5174968;27;20079;-83
2022/06/07 06:38:16;;;;;;;27.75;12.50;;;;;;;21.08;100.00;93216.34;5174962;27;20158;-84
2022/06/07 06:40:43;;;;;;;34.38;14.10;;;;;;;20.65;100.00;93209.13;5174894;27;20128;-84
2022/06/07 06:43:11;;;;;;;29.55;12.27;;;;;;;20.95;100.00;93204.72;5174943;27;20043;-84
2022/06/07 06:45:39;;;;;;;27.42;14.25;;;;;;;21.13;100.00;93216.31;5174981;27;20130;-84
2022/06/07 06:48:07;;;;;;;33.55;13.90;;;;;;;21.10;99.41;93182.91;5172887;27;20532;-85
2022/06/07 06:50:34;;;;;;;29.98;13.30;;;;;;;21.22;100.00;93212.06;5173629;27;21559;-83
2022/06/07 06:53:01;;;;;;;23.55;12.98;;;;;;;21.20;99.10;93211.53;5174449;27;20457;-84
2022/06/07 06:55:28;;;;;;;34.97;14.57;;;;;;;21.35;99.50;93204.63;5174795;27;20057;-83
2022/06/07 06:57:55;;;;;;;25.70;13.50;;;;;;;21.60;98.87;93208.78;5174789;27;20046;-84
2022/06/07 07:00:22;;;;;;;25.70;14.38;;;;;;;21.42;98.59;93199.84;5174736;27;20043;-84
2022/06/07 07:02:53;;;;;;;25.20;13.95;;;;;;;21.40;97.12;93196.72;5172348;27;20077;-84
2022/06/07 07:05:20;;;;;;;25.10;13.00;;;;;;;21.51;99.48;93197.38;5172446;27;20403;-83
2022/06/07 07:07:47;;;;;;;25.30;12.13;;;;;;;21.99;97.75;93187.97;5174208;27;20046;-84
2022/06/07 07:10:14;;;;;;;27.08;12.73;;;;;;;22.18;95.74;93192.44;5174604;27;20094;-85
2022/06/07 07:12:41;;;;;;;20.38;12.00;;;;;;;22.23;95.04;93200.22;5174306;27;20054;-83
2022/06/07 07:15:13;;;;;;;22.20;12.07;;;;;;;21.99;94.39;93190.59;5172367;27;20061;-83
2022/06/07 07:17:39;;;;;;;21.58;13.23;;;;;;;21.71;98.05;93190.41;5172222;27;20094;-84
2022/06/07 07:20:09;;;;;;;27.15;12.20;;;;;;;22.30;94.01;93195.41;5171875;27;20093;-84
2022/06/07 07:22:36;;;;;;;22.25;12.20;;;;;;;22.80;92.19;93187.09;5171953;27;20054;-83
2022/06/07 07:25:05;;;;;;;21.30;11.20;;;;;;;23.33;91.54;93187.78;5174143;27;20042;-83
2022/06/07 07:27:31;;;;;;;19.75;11.05;;;;;;;23.86;88.47;93179.72;5174217;27;20074;-84
2022/06/07 07:29:59;;;;;;;21.27;9.88;;;;;;;22.40;87.85;93181.41;5174058;27;20091;-84
2022/06/07 07:32:26;;;;;;;20.50;10.07;;;;;;;21.48;93.36;93177.06;5171954;27;20433;-85
2022/06/07 07:34:53;;;;;;;19.60;10.75;;;;;;;21.44;96.29;93174.19;5173896;27;20135;-86
2022/06/07 07:37:21;;;;;;;20.30;11.93;;;;;;;21.24;97.10;93167.34;5174100;27;20065;-86
2022/06/07 07:39:48;;;;;;;19.50;10.65;;;;;;;21.53;95.63;93161.31;5173836;27;20038;-84
2022/06/07 07:42:15;;;;;;;22.13;12.20;;;;;;;20.83;100.00;93164.06;5174033;27;20043;-83
2022/06/07 07:44:42;;;;;;;20.63;11.15;;;;;;;20.93;100.00;93160.59;5173731;27;20046;-84
2022/06/07 07:47:09;;;;;;;17.10;9.45;;;;;;;21.57;94.02;93166.75;5173415;27;20095;-82
2022/06/07 07:49:36;;;;;;;21.92;11.55;;;;;;;21.69;95.01;93155.88;5173605;27;20098;-84
2022/06/07 07:52:03;;;;;;;19.83;11.40;;;;;;;22.12;96.67;93150.66;5173860;27;20097;-84
2022/06/07 07:54:31;;;;;;;21.27;11.15;;;;;;;22.47;94.01;93145.16;5171450;27;20042;-83
2022/06/07 07:56:57;;;;;;;17.85;10.52;;;;;;;21.45;94.16;93147.03;5172820;27;20094;-87
2022/06/07 07:59:26;;;;;;;23.48;12.98;;;;;;;22.05;97.62;93137.16;5173389;27;20050;-84
2022/06/07 08:01:53;;;;;;;19.50;11.10;;;;;;;22.68;96.76;93131.78;5173290;27;20077;-82
2022/06/07 08:04:20;;;;;;;21.52;11.18;;;;;;;22.68;93.71;93124.69;5173408;27;20126;-84
2022/06/07 08:06:47;;;;;;;22.23;10.27;;;;;;;23.39;89.71;93143.13;5173466;27;20050;-84
2022/06/07 08:09:14;;;;;;;22.02;10.75;;;;;;;23.89;87.61;93124.81;5173218;27;20448;-83
2022/06/07 08:11:44;;;;;;;21.40;11.38;;;;;;;24.36;84.64;93144.03;5173062;27;20034;-83
2022/06/07 08:14:14;;;;;;;23.83;9.93;;;;;;;24.37;84.01;93143.75;5172971;27;20057;-84
2022/06/07 08:16:41;;;;;;;17.98;10.63;;;;;;;24.66;81.05;93142.53;5168202;27;20442;-84
2022/06/07 08:19:09;;;;;;;16.83;9.50;;;;;;;23.70;86.37;93135.44;5172080;27;20091;-84
2022/06/07 08:21:37;;;;;;;19.60;11.85;;;;;;;23.31;88.55;93127.03;5172556;27;20050;-84
2022/06/07 08:24:04;;;;;;;16.63;10.88;;;;;;;23.93;85.72;93132.88;5171080;27;20038;-82
2022/06/07 08:26:31;;;;;;;18.38;10.65;;;;;;;24.55;86.58;93128.13;5172851;27;20094;-83
2022/06/07 08:28:59;;;;;;;15.48;9.45;;;;;;;25.18;85.10;93119.50;5171914;27;20124;-81
2022/06/07 08:31:29;;;;;;;15.43;9.73;;;;;;;25.75;81.99;93123.22;5168677;27;20091;-82
2022/06/07 08:39:26;;;;;;;17.50;8.98;;;;;;;26.77;74.53;93114.38;5171217;27;20086;-82
2022/06/07 08:41:55;;;;;;;17.02;9.32;;;;;;;26.87;73.69;93114.03;5170694;27;20385;-83
2022/06/07 08:44:27;;;;;;;15.73;9.55;;;;;;;26.87;73.04;93108.75;5170926;27;20054;-83
2022/06/07 08:47:08;;;;;;;20.92;9.45;;;;;;;25.61;75.41;93110.97;5170961;27;20042;-83
2022/06/07 08:49:34;;;;;;;16.75;9.40;;;;;;;25.84;77.99;93100.34;5171895;27;20407;-84
2022/06/07 08:52:12;;;;;;;16.75;9.38;;;;;;;26.27;75.64;93095.38;5172504;27;20050;-83
2022/06/07 08:54:40;;;;;;;15.93;8.57;;;;;;;26.64;76.06;93079.22;5170554;27;20101;-82
2022/06/07 08:57:17;;;;;;;15.60;8.45;;;;;;;27.09;73.66;93083.28;5170251;27;20385;-84
2022/06/07 08:59:47;;;;;;;19.30;9.23;;;;;;;26.20;73.18;93085.28;5171026;27;20073;-86
2022/06/07 09:02:30;;;;;;;12.63;8.68;;;;;;;25.57;75.38;93085.59;5171994;27;20050;-84
2022/06/07 09:04:58;;;;;;;12.00;7.55;;;;;;;25.67;77.78;93079.25;5170358;27;20057;-85
2022/06/07 09:07:25;;;;;;;17.77;8.65;;;;;;;25.88;71.66;93063.66;5170146;27;20359;-85
2022/06/07 09:12:55;;;;;;;10.35;6.95;;;;;;;25.49;75.51;93076.56;5172075;27;20044;-85
2022/06/07 09:15:26;;;;;;;11.93;7.07;;;;;;;25.19;74.72;93066.59;5171720;27;20042;-83
2022/06/07 09:17:58;;;;;;;15.57;7.07;;;;;;;25.90;71.82;93069.38;5171836;27;20038;-84
2022/06/07 09:20:28;;;;;;;14.98;6.85;;;;;;;25.90;72.55;93066.75;5171914;27;20162;-86
2022/06/07 09:22:58;;;;;;;9.90;6.53;;;;;;;25.48;68.68;93067.94;5169509;27;20065;-84
2022/06/07 09:25:29;;;;;;;9.18;6.40;;;;;;;25.71;73.83;93053.88;5171980;27;20078;-83
2022/06/07 09:27:58;;;;;;;14.18;6.97;;;;;;;26.55;74.98;93052.91;5171700;27;20061;-80
2022/06/07 09:30:30;;;;;;;9.77;6.03;;;;;;;26.83;66.29;93039.31;5171968;27;20070;-83
2022/06/07 09:32:56;;;;;;;11.50;6.80;;;;;;;27.35;67.72;93053.34;5171745;27;20079;-85
2022/06/07 09:35:36;;;;;;;10.20;6.47;;;;;;;27.01;65.95;93032.13;5171733;27;20115;-86
2022/06/07 09:38:06;;;;;;;7.63;4.35;;;;;;;25.97;61.16;93042.59;5170490;27;20527;-84
2022/06/07 09:40:35;;;;;;;5.20;3.90;;;;;;;25.98;61.67;93052.81;5174213;27;20433;-83
2022/06/07 09:43:09;;;;;;;6.13;3.47;;;;;;;25.70;60.60;93039.97;5174524;27;20061;-84
2022/06/07 09:45:40;;;;;;;5.88;3.95;;;;;;;25.54;64.19;93039.63;5169983;27;20516;-85
2022/06/07 09:48:28;;;;;;;6.70;3.70;;;;;;;25.21;64.76;93029.50;5176036;27;20369;-85
2022/06/07 09:50:57;;;;;;;7.60;3.78;;;;;;;24.46;56.29;93035.38;5175252;27;20050;-85
2022/06/07 09:53:25;;;;;;;4.82;3.97;;;;;;;24.44;55.90;93038.31;5176008;27;20430;-84
2022/06/07 09:56:01;;;;;;;5.32;3.78;;;;;;;24.91;56.50;93024.03;5175943;27;20047;-87
2022/06/07 09:58:42;;;;;;;;;;;;;;;24.42;55.04;93037.84;5176075;27;20046;-84
2022/06/07 10:01:16;;;;;;;7.18;4.05;;;;;;;24.13;52.70;93031.19;5175105;27;19963;-83
2022/06/07 10:03:49;;;;;;;4.80;3.90;;;;;;;24.40;55.65;93026.88;5175718;27;20061;-87
2022/06/07 10:06:27;;;;;;;6.18;4.13;;;;;;;24.61;54.67;93000.88;5175612;27;20038;-86
2022/06/07 10:09:17;;;;;;;7.28;4.53;;;;;;;24.63;49.56;93024.19;5173862;27;20144;-90
2022/06/07 10:12:02;;;;;;;8.25;3.88;;;;;;;24.84;53.25;93002.69;5170043;27;20484;-86
2022/06/07 10:14:41;;;;;;;5.57;3.90;;;;;;;24.95;50.39;93009.97;5174982;27;20415;-87
2022/06/07 10:17:47;;;;;;;5.30;3.78;;;;;;;24.65;52.54;92999.19;5173959;27;20130;-85
2022/06/07 10:20:23;;;;;;;6.88;3.60;;;;;;;24.54;54.07;93003.16;5163222;27;20497;-86
2022/06/07 10:23:30;;;;;;;4.35;3.45;;;;;;;24.39;51.07;93004.34;5175343;27;20129;-85
2022/06/07 10:26:18;;;;;;;5.70;3.90;;;;;;;25.00;50.01;92997.78;5090186;28;20052;-89
2022/06/07 10:29:05;;;;;;;4.93;3.53;;;;;;;24.80;48.03;92994.59;5166989;27;20041;-85
2022/06/07 10:31:40;;;;;;;5.10;4.03;;;;;;;24.46;50.39;92998.63;5174306;27;20051;-85
2022/06/07 10:34:17;;;;;;;5.25;3.65;;;;;;;25.30;51.79;92990.09;5174970;27;20496;-85
2022/06/07 10:36:58;;;;;;;5.88;3.28;;;;;;;25.14;50.04;92985.28;5174058;27;20085;-82
2022/06/07 10:39:39;;;;;;;4.65;3.70;;;;;;;26.02;50.76;92979.28;5173301;27;20461;-85
2022/06/07 10:42:21;;;;;;;4.13;3.30;;;;;;;25.80;43.26;92951.28;5174458;27;20480;-85
2022/06/07 10:44:55;;;;;;;15.60;3.78;;;;;;;25.10;45.65;92968.59;5174175;27;20046;-85
2022/06/07 10:47:29;;;;;;;12.70;4.28;;;;;;;24.95;44.64;92964.53;5174739;27;20045;-86
2022/06/07 10:50:01;;;;;;;5.70;3.58;;;;;;;24.81;46.34;92962.00;5173107;27;20050;-84
2022/06/07 10:52:38;;;;;;;5.10;3.35;;;;;;;24.85;47.37;92949.81;5172397;27;20046;-85
2022/06/07 10:55:20;;;;;;;5.03;3.45;;;;;;;25.02;45.77;92958.81;5174544;27;20384;-83
2022/06/07 10:57:57;;;;;;;4.72;3.10;;;;;;;24.68;45.50;92953.91;5173650;27;20484;-87
2022/06/07 11:00:36;;;;;;;4.57;3.15;;;;;;;24.99;44.69;92939.19;5172865;27;20048;-87
2022/06/07 11:03:21;;;;;;;5.05;2.90;;;;;;;25.10;44.46;92952.81;5173426;27;20560;-86
2022/06/07 11:11:35;;;;;;;4.10;3.22;;;;;;;25.24;44.39;92938.75;5163583;27;20116;-85
2022/06/07 11:14:32;;;;;;;4.75;2.80;;;;;;;25.90;44.15;92948.34;5166899;27;20047;-86
2022/06/07 11:17:10;;;;;;;3.38;2.10;;;;;;;25.74;40.00;92933.03;5162288;27;20084;-87
2022/06/07 11:19:38;;;;;;;9.88;5.47;;;;;;;25.90;42.12;92935.19;5167046;27;20093;-86
2022/06/07 11:22:07;;;;;;;7.22;3.47;;;;;;;25.50;41.54;92925.59;5165551;27;20061;-88
2022/06/07 11:24:55;;;;;;;32.47;14.45;;;;;;;25.81;43.32;92934.41;5124597;27;20050;-87
2022/06/07 11:27:24;;;;;;;7.85;4.60;;;;;;;25.13;45.83;92938.28;5125752;27;20046;-87
2022/06/07 11:30:26;;;;;;;25.00;12.82;;;;;;;25.31;47.41;92929.31;5125291;27;20439;-87
2022/06/07 11:32:57;;;;;;;10.43;7.00;;;;;;;25.33;48.66;92923.75;5108807;27;20124;-86
2022/06/07 11:35:44;;;;;;;3.70;2.83;;;;;;;25.30;48.87;92921.75;5123115;27;20478;-89
2022/06/07 11:38:29;;;;;;;8.10;4.03;;;;;;;25.59;44.34;92923.00;5129796;27;20069;-89
2022/06/07 11:41:41;;;;;;;4.28;2.63;;;;;;;26.10;44.56;92919.81;5121025;27;20497;-88
2022/06/07 11:44:58;;;;;;;3.90;2.65;;;;;;;26.42;46.16;92915.84;5131675;27;20043;-87
2022/06/07 11:47:33;;;;;;;3.53;2.80;;;;;;;25.45;47.07;92917.88;5132314;27;20043;-87
2022/06/07 11:50:27;;;;;;;5.32;2.92;;;;;;;25.08;47.27;92897.16;5130148;27;20090;-85
2022/06/07 11:53:20;;;;;;;4.72;2.65;;;;;;;25.44;47.20;92890.03;5131343;27;20053;-87
2022/06/07 11:55:56;;;;;;;4.18;2.65;;;;;;;25.27;48.07;92888.97;5132093;27;20053;-83
2022/06/07 11:58:37;;;;;;;;;;;;;;;25.52;50.68;92909.50;5132226;27;20055;-86
2022/06/07 12:01:25;;;;;;;4.35;2.97;;;;;;;25.17;50.85;92897.16;5130194;27;19919;-87
2022/06/07 12:04:07;;;;;;;7.22;4.90;;;;;;;25.24;51.76;92907.22;5123514;27;20043;-86
2022/06/07 12:06:35;;;;;;;8.75;3.50;;;;;;;25.04;50.38;92893.63;5130617;27;20443;-86